SWR189 ZSPD-LSZH
Flight info
| Callsign | SWR189 |
|---|---|
| Flight time | N/A |
| Altitude | 32100 |
| Route | PIK98D PIKAS G330 PIMOL A593 NIXEM/K0887S1040 A593 DALIM W157 BEKDO/K0876S1010 W157 VYK G212 SOTMU/K0883S1040 B339 ASILA A575 UPREK W28 LAGEB W66 IDSIP/K0867S1100 W66 NUKTI B215 FKG A368 SARIN/K0854F360 N161 UNABO/K0859F380 N161 GASBI/N0469F380 N161 LEYLA N644 ADEKI DCT BADIR DCT LAGAS DCT NOLGA UN61 TBN UM11 TEMEL/N0468F400 UM11 CRM UL746 ODERO DCT LUGEB DCT SOKRU DCT INVED DCT SUNIS DCT ERKIR DCT KPT L856 NEGRA |
| Aircraft | A343/H-SDE2E3FGHIJ4J5M1P2RWXY/LB1D1 |
Departure
| Time | N/A |
|---|---|
| Airport | Shanghai Pudong International Airport (ZSPD) |
Arrival
| Time | 2026-05-07 21:39 |
|---|---|
| Airport | Zürich Airport (LSZH) |
| Time | Latitude | Longitude | Altitude | Speed | Heading |
|---|---|---|---|---|---|
| 2026-05-07 17:54 | 41.55962 | 44.39733 | 36184 ft | 457 kts | 273° |
| 2026-05-07 17:54 | 41.56276 | 44.35510 | 36184 ft | 457 kts | 273° |
| 2026-05-07 17:54 | 41.56895 | 44.27064 | 36184 ft | 457 kts | 272° |
| 2026-05-07 17:55 | 41.56669 | 44.18641 | 36196 ft | 455 kts | 261° |
| 2026-05-07 17:55 | 41.55817 | 44.10249 | 36192 ft | 456 kts | 260° |
| 2026-05-07 17:56 | 41.54866 | 44.01871 | 36201 ft | 457 kts | 259° |
| 2026-05-07 17:56 | 41.53910 | 43.93491 | 36200 ft | 456 kts | 259° |
| 2026-05-07 17:57 | 41.53121 | 43.86515 | 36205 ft | 457 kts | 260° |
| 2026-05-07 17:57 | 41.52019 | 43.76759 | 36204 ft | 457 kts | 260° |
| 2026-05-07 17:58 | 41.51064 | 43.68359 | 36205 ft | 458 kts | 259° |
| 2026-05-07 17:58 | 41.50102 | 43.59958 | 36206 ft | 459 kts | 260° |
| 2026-05-07 17:59 | 41.49131 | 43.51534 | 36202 ft | 460 kts | 260° |
| 2026-05-07 17:59 | 41.48151 | 43.43094 | 36203 ft | 460 kts | 260° |
| 2026-05-07 18:00 | 41.47169 | 43.34686 | 36206 ft | 460 kts | 260° |
| 2026-05-07 18:00 | 41.46176 | 43.26245 | 36200 ft | 460 kts | 259° |
| 2026-05-07 18:01 | 41.45178 | 43.17816 | 36200 ft | 460 kts | 259° |
| 2026-05-07 18:01 | 41.44173 | 43.09378 | 36201 ft | 460 kts | 259° |
| 2026-05-07 18:02 | 41.42658 | 42.96760 | 36204 ft | 463 kts | 260° |
| 2026-05-07 18:03 | 41.41634 | 42.88261 | 36209 ft | 464 kts | 260° |
| 2026-05-07 18:03 | 41.40597 | 42.79776 | 36218 ft | 464 kts | 260° |
| 2026-05-07 18:04 | 41.39556 | 42.71298 | 36224 ft | 464 kts | 260° |
| 2026-05-07 18:04 | 41.38514 | 42.62856 | 36225 ft | 464 kts | 260° |
| 2026-05-07 18:05 | 41.37460 | 42.54364 | 36230 ft | 465 kts | 260° |
| 2026-05-07 18:05 | 41.36398 | 42.45863 | 36239 ft | 465 kts | 259° |
| 2026-05-07 18:06 | 41.35329 | 42.37363 | 36236 ft | 467 kts | 260° |
| 2026-05-07 18:06 | 41.34255 | 42.28891 | 36236 ft | 467 kts | 260° |
| 2026-05-07 18:07 | 41.33172 | 42.20364 | 36235 ft | 467 kts | 260° |
| 2026-05-07 18:07 | 41.32081 | 42.11835 | 36242 ft | 467 kts | 260° |
| 2026-05-07 18:08 | 41.30983 | 42.03304 | 36238 ft | 467 kts | 260° |
| 2026-05-07 18:08 | 41.29878 | 41.94778 | 36238 ft | 467 kts | 260° |
| 2026-05-07 18:09 | 41.28762 | 41.86262 | 36242 ft | 467 kts | 260° |
| 2026-05-07 18:09 | 41.27634 | 41.77789 | 36230 ft | 469 kts | 260° |
| 2026-05-07 18:10 | 41.26493 | 41.69230 | 36224 ft | 470 kts | 260° |
| 2026-05-07 18:10 | 41.25349 | 41.60675 | 36217 ft | 470 kts | 260° |
| 2026-05-07 18:11 | 41.24203 | 41.52161 | 36213 ft | 469 kts | 260° |
| 2026-05-07 18:11 | 41.23047 | 41.43616 | 36213 ft | 469 kts | 260° |
| 2026-05-07 18:12 | 41.21885 | 41.35087 | 36210 ft | 469 kts | 259° |
| 2026-05-07 18:12 | 41.20722 | 41.26607 | 36212 ft | 469 kts | 260° |
| 2026-05-07 18:13 | 41.19540 | 41.18063 | 36211 ft | 471 kts | 259° |
| 2026-05-07 18:13 | 41.18350 | 41.09497 | 36210 ft | 471 kts | 260° |
| 2026-05-07 18:14 | 41.17160 | 41.00926 | 36211 ft | 471 kts | 260° |
| 2026-05-07 18:14 | 41.15964 | 40.92374 | 36211 ft | 471 kts | 259° |
| 2026-05-07 18:15 | 41.14765 | 40.83871 | 36210 ft | 471 kts | 259° |
| 2026-05-07 18:15 | 41.13552 | 40.75313 | 36205 ft | 471 kts | 259° |
| 2026-05-07 18:16 | 41.12333 | 40.66765 | 36213 ft | 472 kts | 260° |
| 2026-05-07 18:16 | 41.11317 | 40.59651 | 36208 ft | 472 kts | 260° |
| 2026-05-07 18:17 | 41.10082 | 40.51077 | 36202 ft | 473 kts | 259° |
| 2026-05-07 18:17 | 41.08841 | 40.42518 | 36207 ft | 473 kts | 259° |
| 2026-05-07 18:18 | 41.07600 | 40.33998 | 36202 ft | 473 kts | 259° |
| 2026-05-07 18:18 | 41.06346 | 40.25431 | 36202 ft | 473 kts | 259° |
| 2026-05-07 18:19 | 41.05087 | 40.16881 | 36199 ft | 473 kts | 259° |
| 2026-05-07 18:19 | 41.03830 | 40.08381 | 36204 ft | 473 kts | 259° |
| 2026-05-07 18:20 | 41.02552 | 39.99828 | 36208 ft | 473 kts | 260° |
| 2026-05-07 18:20 | 41.01273 | 39.91272 | 36210 ft | 473 kts | 260° |
| 2026-05-07 18:21 | 41.00044 | 39.82712 | 36208 ft | 472 kts | 264° |
| 2026-05-07 18:21 | 41.00058 | 39.74123 | 36211 ft | 470 kts | 276° |
| 2026-05-07 18:22 | 41.00806 | 39.65518 | 36212 ft | 470 kts | 278° |
| 2026-05-07 18:22 | 41.01661 | 39.56918 | 36210 ft | 470 kts | 278° |
| 2026-05-07 18:23 | 41.02496 | 39.48370 | 36204 ft | 470 kts | 278° |
| 2026-05-07 18:23 | 41.03311 | 39.39779 | 36207 ft | 469 kts | 278° |
| 2026-05-07 18:24 | 41.04109 | 39.31201 | 36202 ft | 469 kts | 278° |
| 2026-05-07 18:24 | 41.04899 | 39.22624 | 36199 ft | 469 kts | 278° |
| 2026-05-07 18:25 | 41.05681 | 39.14088 | 36195 ft | 469 kts | 278° |
| 2026-05-07 18:25 | 41.06474 | 39.05498 | 36191 ft | 469 kts | 278° |
| 2026-05-07 18:26 | 41.07267 | 38.96906 | 36190 ft | 469 kts | 278° |
| 2026-05-07 18:26 | 41.08052 | 38.88318 | 36193 ft | 469 kts | 278° |
| 2026-05-07 18:27 | 41.08825 | 38.79783 | 36188 ft | 468 kts | 278° |
| 2026-05-07 18:27 | 41.09596 | 38.71211 | 36186 ft | 467 kts | 278° |
| 2026-05-07 18:28 | 41.10355 | 38.62649 | 36187 ft | 467 kts | 278° |
| 2026-05-07 18:28 | 41.11082 | 38.54131 | 36184 ft | 467 kts | 278° |
| 2026-05-07 18:29 | 41.11786 | 38.45553 | 36183 ft | 468 kts | 278° |
| 2026-05-07 18:29 | 41.12491 | 38.36965 | 36184 ft | 468 kts | 278° |
| 2026-05-07 18:30 | 41.13198 | 38.28391 | 36181 ft | 468 kts | 278° |
| 2026-05-07 18:30 | 41.13903 | 38.19864 | 36184 ft | 468 kts | 278° |
| 2026-05-07 18:31 | 41.14602 | 38.11289 | 36175 ft | 467 kts | 278° |
| 2026-05-07 18:31 | 41.15293 | 38.02722 | 36178 ft | 466 kts | 278° |
| 2026-05-07 18:32 | 41.15978 | 37.94158 | 36190 ft | 466 kts | 278° |
| 2026-05-07 18:32 | 41.16661 | 37.85597 | 36185 ft | 466 kts | 278° |
| 2026-05-07 18:33 | 41.17384 | 37.77078 | 36190 ft | 466 kts | 278° |
| 2026-05-07 18:33 | 41.18118 | 37.68515 | 36183 ft | 466 kts | 278° |
| 2026-05-07 18:34 | 41.18838 | 37.59947 | 36179 ft | 466 kts | 278° |
| 2026-05-07 18:34 | 41.19337 | 37.51395 | 36174 ft | 467 kts | 276° |
| 2026-05-07 18:35 | 41.19912 | 37.42807 | 36177 ft | 466 kts | 277° |
| 2026-05-07 18:35 | 41.20553 | 37.34258 | 36179 ft | 465 kts | 278° |
| 2026-05-07 18:36 | 41.21194 | 37.25719 | 36180 ft | 464 kts | 278° |
| 2026-05-07 18:36 | 41.21832 | 37.17222 | 36182 ft | 464 kts | 278° |
| 2026-05-07 18:37 | 41.22499 | 37.08692 | 36182 ft | 464 kts | 278° |
| 2026-05-07 18:37 | 41.23164 | 37.00153 | 36181 ft | 464 kts | 278° |
| 2026-05-07 18:38 | 41.23817 | 36.91614 | 36184 ft | 464 kts | 278° |
| 2026-05-07 18:38 | 41.24457 | 36.83133 | 36182 ft | 464 kts | 278° |
| 2026-05-07 18:39 | 41.25094 | 36.74599 | 36180 ft | 463 kts | 278° |
| 2026-05-07 18:39 | 41.25723 | 36.66080 | 36185 ft | 462 kts | 278° |
| 2026-05-07 18:40 | 41.26372 | 36.57583 | 36178 ft | 461 kts | 281° |
| 2026-05-07 18:40 | 41.27940 | 36.49427 | 36177 ft | 457 kts | 290° |
| 2026-05-07 18:41 | 41.29942 | 36.41394 | 36177 ft | 457 kts | 291° |
| 2026-05-07 18:41 | 41.32005 | 36.33391 | 36174 ft | 457 kts | 291° |
| 2026-05-07 18:42 | 41.34055 | 36.25383 | 36172 ft | 456 kts | 291° |
| 2026-05-07 18:42 | 41.36081 | 36.17384 | 36170 ft | 456 kts | 291° |
| 2026-05-07 18:43 | 41.38084 | 36.09429 | 36166 ft | 456 kts | 290° |
| 2026-05-07 18:43 | 41.40097 | 36.01405 | 36160 ft | 456 kts | 290° |
| 2026-05-07 18:44 | 41.42103 | 35.93383 | 36147 ft | 455 kts | 291° |
| 2026-05-07 18:44 | 41.44095 | 35.85391 | 36149 ft | 454 kts | 291° |
| 2026-05-07 18:45 | 41.46082 | 35.77398 | 36148 ft | 454 kts | 291° |
| 2026-05-07 18:45 | 41.48048 | 35.69455 | 36143 ft | 454 kts | 290° |
| 2026-05-07 18:46 | 41.50026 | 35.61445 | 36142 ft | 454 kts | 290° |
| 2026-05-07 18:46 | 41.51995 | 35.53441 | 36143 ft | 454 kts | 290° |
| 2026-05-07 18:47 | 41.53958 | 35.45431 | 36143 ft | 454 kts | 290° |
| 2026-05-07 18:47 | 41.55916 | 35.37415 | 36140 ft | 454 kts | 290° |
| 2026-05-07 18:48 | 41.57866 | 35.29400 | 36143 ft | 453 kts | 290° |
| 2026-05-07 18:48 | 41.59792 | 35.21455 | 36137 ft | 451 kts | 290° |
| 2026-05-07 18:49 | 41.61722 | 35.13475 | 36138 ft | 451 kts | 290° |
| 2026-05-07 18:49 | 41.63647 | 35.05490 | 36136 ft | 451 kts | 290° |
| 2026-05-07 18:50 | 41.65564 | 34.97507 | 36141 ft | 451 kts | 290° |
| 2026-05-07 18:50 | 41.67462 | 34.89572 | 36139 ft | 451 kts | 290° |
| 2026-05-07 18:51 | 41.69369 | 34.81578 | 36141 ft | 451 kts | 290° |
| 2026-05-07 18:51 | 41.71268 | 34.73588 | 36141 ft | 451 kts | 290° |
| 2026-05-07 18:52 | 41.73162 | 34.65585 | 36139 ft | 451 kts | 290° |
| 2026-05-07 18:52 | 41.75051 | 34.57583 | 36142 ft | 450 kts | 290° |
| 2026-05-07 18:53 | 41.76932 | 34.49582 | 36142 ft | 451 kts | 290° |
| 2026-05-07 18:53 | 41.78805 | 34.41568 | 36140 ft | 450 kts | 290° |
| 2026-05-07 18:54 | 41.80676 | 34.33556 | 36146 ft | 450 kts | 290° |
| 2026-05-07 18:54 | 41.82530 | 34.25591 | 36148 ft | 450 kts | 290° |
| 2026-05-07 18:55 | 41.84394 | 34.17551 | 36153 ft | 451 kts | 290° |
| 2026-05-07 18:55 | 41.86249 | 34.09518 | 36149 ft | 450 kts | 290° |
| 2026-05-07 18:56 | 41.88098 | 34.01484 | 36148 ft | 449 kts | 290° |
| 2026-05-07 18:56 | 41.89923 | 33.93518 | 36151 ft | 449 kts | 290° |
| 2026-05-07 18:57 | 41.91755 | 33.85499 | 36152 ft | 449 kts | 290° |
| 2026-05-07 18:57 | 41.93582 | 33.77467 | 36151 ft | 449 kts | 290° |
| 2026-05-07 18:58 | 41.95400 | 33.69451 | 36148 ft | 448 kts | 290° |
| 2026-05-07 18:58 | 41.97037 | 33.61359 | 36149 ft | 449 kts | 287° |
| 2026-05-07 18:59 | 41.98544 | 33.53206 | 36146 ft | 449 kts | 287° |
| 2026-05-07 18:59 | 42.00055 | 33.45117 | 36140 ft | 449 kts | 288° |
| 2026-05-07 19:00 | 42.01340 | 33.38343 | 36139 ft | 448 kts | 288° |
| 2026-05-07 19:00 | 42.03148 | 33.28855 | 36140 ft | 447 kts | 288° |
| 2026-05-07 19:01 | 42.04677 | 33.20800 | 36134 ft | 447 kts | 288° |
| 2026-05-07 19:01 | 42.06208 | 33.12688 | 36135 ft | 446 kts | 288° |
| 2026-05-07 19:02 | 42.07742 | 33.04595 | 36131 ft | 445 kts | 288° |
| 2026-05-07 19:02 | 42.09386 | 32.96560 | 36126 ft | 445 kts | 289° |
| 2026-05-07 19:03 | 42.11056 | 32.88532 | 36128 ft | 445 kts | 289° |
| 2026-05-07 19:03 | 42.12694 | 32.80549 | 36125 ft | 445 kts | 289° |
| 2026-05-07 19:04 | 42.14326 | 32.72501 | 36126 ft | 444 kts | 288° |
| 2026-05-07 19:04 | 42.15949 | 32.64451 | 36127 ft | 444 kts | 288° |
| 2026-05-07 19:05 | 42.17555 | 32.56462 | 36136 ft | 444 kts | 288° |
| 2026-05-07 19:05 | 42.19162 | 32.48412 | 36127 ft | 444 kts | 288° |
| 2026-05-07 19:06 | 42.20764 | 32.40357 | 36127 ft | 444 kts | 288° |
| 2026-05-07 19:06 | 42.23157 | 32.28266 | 36126 ft | 444 kts | 288° |
| 2026-05-07 19:07 | 42.24745 | 32.20204 | 36124 ft | 444 kts | 288° |
| 2026-05-07 19:07 | 42.26320 | 32.12184 | 36125 ft | 445 kts | 288° |
| 2026-05-07 19:08 | 42.27897 | 32.04094 | 36133 ft | 445 kts | 288° |
| 2026-05-07 19:08 | 42.29470 | 31.96018 | 36127 ft | 445 kts | 288° |
| 2026-05-07 19:09 | 42.31045 | 31.87917 | 36128 ft | 445 kts | 288° |
| 2026-05-07 19:09 | 42.32345 | 31.81202 | 36130 ft | 445 kts | 288° |
| 2026-05-07 19:10 | 42.34162 | 31.71776 | 36125 ft | 445 kts | 288° |
| 2026-05-07 19:10 | 42.35455 | 31.65039 | 36130 ft | 444 kts | 288° |
| 2026-05-07 19:11 | 42.37254 | 31.55631 | 36130 ft | 444 kts | 288° |
| 2026-05-07 19:11 | 42.38792 | 31.47548 | 36132 ft | 443 kts | 288° |
| 2026-05-07 19:12 | 42.40063 | 31.40842 | 36132 ft | 442 kts | 288° |
| 2026-05-07 19:12 | 42.41588 | 31.32772 | 36135 ft | 442 kts | 288° |
| 2026-05-07 19:13 | 42.43104 | 31.24710 | 36130 ft | 442 kts | 288° |
| 2026-05-07 19:13 | 42.44616 | 31.16635 | 36127 ft | 441 kts | 288° |
| 2026-05-07 19:14 | 42.46118 | 31.08590 | 36132 ft | 440 kts | 288° |
| 2026-05-07 19:14 | 42.47600 | 31.00612 | 36132 ft | 440 kts | 287° |
| 2026-05-07 19:15 | 42.49083 | 30.92567 | 36132 ft | 440 kts | 287° |
| 2026-05-07 19:15 | 42.50559 | 30.84527 | 36132 ft | 440 kts | 287° |
| 2026-05-07 19:16 | 42.52031 | 30.76480 | 36135 ft | 439 kts | 287° |
| 2026-05-07 19:16 | 42.53495 | 30.68446 | 36135 ft | 438 kts | 287° |
| 2026-05-07 19:17 | 42.54941 | 30.60474 | 36132 ft | 438 kts | 287° |
| 2026-05-07 19:17 | 42.56392 | 30.52451 | 36122 ft | 438 kts | 287° |
| 2026-05-07 19:18 | 42.57839 | 30.44410 | 36135 ft | 438 kts | 287° |
| 2026-05-07 19:18 | 42.59280 | 30.36362 | 36135 ft | 438 kts | 287° |
| 2026-05-07 19:19 | 42.61040 | 30.28539 | 36130 ft | 434 kts | 296° |
| 2026-05-07 19:19 | 42.64234 | 30.21649 | 36125 ft | 430 kts | 310° |
| 2026-05-07 19:20 | 42.68146 | 30.15480 | 36132 ft | 431 kts | 312° |
| 2026-05-07 19:20 | 42.72163 | 30.09414 | 36132 ft | 431 kts | 313° |
| 2026-05-07 19:21 | 42.76147 | 30.03379 | 36132 ft | 431 kts | 312° |
| 2026-05-07 19:21 | 42.80144 | 29.97266 | 36127 ft | 431 kts | 312° |
| 2026-05-07 19:22 | 42.84125 | 29.91142 | 36127 ft | 432 kts | 311° |
| 2026-05-07 19:22 | 42.88114 | 29.84994 | 36127 ft | 432 kts | 311° |
| 2026-05-07 19:23 | 42.92067 | 29.78887 | 36133 ft | 432 kts | 312° |
| 2026-05-07 19:23 | 42.96047 | 29.72726 | 36127 ft | 432 kts | 311° |
| 2026-05-07 19:24 | 43.00029 | 29.66554 | 36130 ft | 432 kts | 311° |
| 2026-05-07 19:24 | 43.03985 | 29.60408 | 36130 ft | 432 kts | 311° |
| 2026-05-07 19:25 | 43.07953 | 29.54227 | 36127 ft | 432 kts | 311° |
| 2026-05-07 19:25 | 43.11928 | 29.48024 | 36127 ft | 432 kts | 311° |
| 2026-05-07 19:26 | 43.15897 | 29.41816 | 36129 ft | 432 kts | 311° |
| 2026-05-07 19:26 | 43.19839 | 29.35637 | 36129 ft | 432 kts | 311° |
| 2026-05-07 19:27 | 43.23795 | 29.29425 | 36129 ft | 432 kts | 311° |
| 2026-05-07 19:27 | 43.27749 | 29.23200 | 36130 ft | 433 kts | 310° |
| 2026-05-07 19:28 | 43.31702 | 29.16960 | 36129 ft | 433 kts | 311° |
| 2026-05-07 19:28 | 43.35656 | 29.10712 | 36129 ft | 433 kts | 311° |
| 2026-05-07 19:29 | 43.39610 | 29.04449 | 36129 ft | 433 kts | 311° |
| 2026-05-07 19:29 | 43.43528 | 28.98224 | 36127 ft | 433 kts | 310° |
| 2026-05-07 19:30 | 43.47477 | 28.91941 | 36324 ft | 435 kts | 310° |
| 2026-05-07 19:30 | 43.49457 | 28.88787 | 36515 ft | 435 kts | 310° |
| 2026-05-07 19:30 | 43.51436 | 28.85630 | 36691 ft | 435 kts | 310° |
| 2026-05-07 19:31 | 43.53413 | 28.82474 | 36884 ft | 435 kts | 310° |
| 2026-05-07 19:31 | 43.55392 | 28.79309 | 37050 ft | 435 kts | 310° |
| 2026-05-07 19:31 | 43.57372 | 28.76140 | 37180 ft | 437 kts | 309° |
| 2026-05-07 19:31 | 43.59356 | 28.72961 | 37351 ft | 437 kts | 309° |
| 2026-05-07 19:32 | 43.61336 | 28.69784 | 37535 ft | 437 kts | 309° |
| 2026-05-07 19:32 | 43.63292 | 28.66642 | 37733 ft | 436 kts | 309° |
| 2026-05-07 19:32 | 43.65270 | 28.63462 | 37913 ft | 436 kts | 309° |
| 2026-05-07 19:32 | 43.67248 | 28.60277 | 38074 ft | 436 kts | 309° |
| 2026-05-07 19:33 | 43.71204 | 28.53900 | 38117 ft | 435 kts | 309° |
| 2026-05-07 19:33 | 43.74732 | 28.47157 | 38104 ft | 432 kts | 301° |
| 2026-05-07 19:34 | 43.77788 | 28.40045 | 38105 ft | 432 kts | 299° |
| 2026-05-07 19:34 | 43.80792 | 28.32830 | 38099 ft | 433 kts | 299° |
| 2026-05-07 19:35 | 43.83785 | 28.25600 | 38093 ft | 433 kts | 298° |
| 2026-05-07 19:35 | 43.86784 | 28.18346 | 38094 ft | 434 kts | 298° |
| 2026-05-07 19:36 | 43.89785 | 28.11083 | 38086 ft | 434 kts | 298° |
| 2026-05-07 19:36 | 43.92772 | 28.03867 | 38083 ft | 434 kts | 298° |
| 2026-05-07 19:37 | 43.95773 | 27.96590 | 38081 ft | 434 kts | 298° |
| 2026-05-07 19:37 | 43.98769 | 27.89299 | 38077 ft | 435 kts | 298° |
| 2026-05-07 19:38 | 44.01761 | 27.81998 | 38078 ft | 435 kts | 298° |
| 2026-05-07 19:38 | 44.04729 | 27.74737 | 38073 ft | 435 kts | 298° |
| 2026-05-07 19:39 | 44.07712 | 27.67419 | 38068 ft | 435 kts | 298° |
| 2026-05-07 19:39 | 44.10694 | 27.60084 | 38070 ft | 435 kts | 298° |
| 2026-05-07 19:40 | 44.13666 | 27.52757 | 38064 ft | 435 kts | 297° |
| 2026-05-07 19:40 | 44.16621 | 27.45454 | 38058 ft | 435 kts | 297° |
| 2026-05-07 19:41 | 44.19585 | 27.38108 | 38066 ft | 435 kts | 297° |
| 2026-05-07 19:41 | 44.22547 | 27.30746 | 38053 ft | 435 kts | 297° |
| 2026-05-07 19:42 | 44.25508 | 27.23371 | 38053 ft | 435 kts | 297° |
| 2026-05-07 19:42 | 44.28462 | 27.15991 | 38048 ft | 436 kts | 297° |
| 2026-05-07 19:43 | 44.31413 | 27.08601 | 38053 ft | 436 kts | 297° |
| 2026-05-07 19:43 | 44.34344 | 27.01244 | 38048 ft | 436 kts | 297° |
| 2026-05-07 19:44 | 44.37284 | 26.93840 | 38048 ft | 436 kts | 297° |
| 2026-05-07 19:44 | 44.40224 | 26.86420 | 38048 ft | 436 kts | 297° |
| 2026-05-07 19:45 | 44.43159 | 26.78992 | 38045 ft | 436 kts | 297° |
| 2026-05-07 19:45 | 44.46086 | 26.71564 | 38045 ft | 436 kts | 297° |
| 2026-05-07 19:46 | 44.49009 | 26.64128 | 38045 ft | 436 kts | 297° |
| 2026-05-07 19:46 | 44.51908 | 26.56732 | 38042 ft | 436 kts | 296° |
| 2026-05-07 19:47 | 44.54821 | 26.49283 | 38046 ft | 436 kts | 296° |
| 2026-05-07 19:47 | 44.57735 | 26.41810 | 38045 ft | 437 kts | 296° |
| 2026-05-07 19:48 | 44.60649 | 26.34315 | 38045 ft | 437 kts | 296° |
| 2026-05-07 19:48 | 44.63540 | 26.26861 | 38045 ft | 437 kts | 296° |
| 2026-05-07 19:49 | 44.66442 | 26.19359 | 38048 ft | 437 kts | 296° |
| 2026-05-07 19:49 | 44.69343 | 26.11839 | 38048 ft | 438 kts | 296° |
| 2026-05-07 19:50 | 44.72247 | 26.04291 | 38048 ft | 438 kts | 296° |
| 2026-05-07 19:50 | 44.75144 | 25.96741 | 38048 ft | 438 kts | 296° |
| 2026-05-07 19:51 | 44.78039 | 25.89175 | 38052 ft | 439 kts | 296° |
| 2026-05-07 19:51 | 44.80910 | 25.81650 | 38050 ft | 439 kts | 296° |
| 2026-05-07 19:52 | 44.83799 | 25.74060 | 38050 ft | 440 kts | 296° |
| 2026-05-07 19:52 | 44.86688 | 25.66447 | 38050 ft | 440 kts | 296° |
| 2026-05-07 19:53 | 44.89567 | 25.58841 | 38054 ft | 440 kts | 295° |
| 2026-05-07 19:53 | 44.92443 | 25.51222 | 38056 ft | 440 kts | 295° |
| 2026-05-07 19:54 | 44.95317 | 25.43583 | 38055 ft | 440 kts | 295° |
| 2026-05-07 19:54 | 44.98187 | 25.35937 | 38062 ft | 440 kts | 295° |
| 2026-05-07 19:55 | 45.00576 | 25.28064 | 38058 ft | 438 kts | 289° |
| 2026-05-07 19:55 | 45.02721 | 25.20002 | 38064 ft | 437 kts | 288° |
| 2026-05-07 19:56 | 45.04820 | 25.11918 | 38067 ft | 437 kts | 288° |
| 2026-05-07 19:56 | 45.06897 | 25.03895 | 38068 ft | 437 kts | 288° |
| 2026-05-07 19:57 | 45.08991 | 24.95809 | 38068 ft | 437 kts | 288° |
| 2026-05-07 19:57 | 45.11082 | 24.87723 | 38072 ft | 438 kts | 288° |
| 2026-05-07 19:58 | 45.13172 | 24.79611 | 38070 ft | 438 kts | 288° |
| 2026-05-07 19:58 | 45.15257 | 24.71491 | 38072 ft | 438 kts | 288° |
| 2026-05-07 19:59 | 45.17336 | 24.63370 | 38074 ft | 438 kts | 287° |
| 2026-05-07 19:59 | 45.19394 | 24.55294 | 38077 ft | 438 kts | 288° |
| 2026-05-07 20:00 | 45.21466 | 24.47135 | 38075 ft | 440 kts | 287° |
| 2026-05-07 20:00 | 45.23539 | 24.38945 | 38078 ft | 440 kts | 287° |
| 2026-05-07 20:01 | 45.25592 | 24.30811 | 38070 ft | 440 kts | 287° |
| 2026-05-07 20:01 | 45.27652 | 24.22617 | 38078 ft | 441 kts | 288° |
| 2026-05-07 20:02 | 45.29359 | 24.15804 | 38086 ft | 439 kts | 287° |
| 2026-05-07 20:02 | 45.31734 | 24.06295 | 38066 ft | 438 kts | 287° |
| 2026-05-07 20:03 | 45.33434 | 23.99459 | 38084 ft | 438 kts | 287° |
| 2026-05-07 20:03 | 45.35448 | 23.91335 | 38085 ft | 438 kts | 287° |
| 2026-05-07 20:04 | 45.37470 | 23.83152 | 38083 ft | 437 kts | 287° |
| 2026-05-07 20:04 | 45.39479 | 23.74988 | 38076 ft | 436 kts | 287° |
| 2026-05-07 20:05 | 45.41466 | 23.66890 | 38081 ft | 436 kts | 287° |
| 2026-05-07 20:05 | 45.43459 | 23.58741 | 38083 ft | 436 kts | 287° |
| 2026-05-07 20:06 | 45.45447 | 23.50576 | 38084 ft | 436 kts | 287° |
| 2026-05-07 20:06 | 45.47427 | 23.42408 | 38081 ft | 436 kts | 287° |
| 2026-05-07 20:07 | 45.49391 | 23.34282 | 38083 ft | 436 kts | 287° |
| 2026-05-07 20:07 | 45.51358 | 23.26110 | 38077 ft | 436 kts | 286° |
| 2026-05-07 20:08 | 45.53323 | 23.17925 | 38074 ft | 436 kts | 286° |
| 2026-05-07 20:08 | 45.55286 | 23.09718 | 38070 ft | 437 kts | 286° |
| 2026-05-07 20:09 | 45.57244 | 23.01501 | 38064 ft | 437 kts | 286° |
| 2026-05-07 20:10 | 45.60161 | 22.89200 | 38061 ft | 437 kts | 286° |
| 2026-05-07 20:10 | 45.62104 | 22.80968 | 38065 ft | 437 kts | 286° |
| 2026-05-07 20:11 | 45.64035 | 22.72755 | 38053 ft | 435 kts | 286° |
| 2026-05-07 20:11 | 45.65961 | 22.64535 | 38056 ft | 435 kts | 285° |
| 2026-05-07 20:12 | 45.67868 | 22.56362 | 38054 ft | 435 kts | 285° |
| 2026-05-07 20:12 | 45.69780 | 22.48139 | 38066 ft | 435 kts | 285° |
| 2026-05-07 20:13 | 45.71684 | 22.39922 | 38049 ft | 435 kts | 285° |
| 2026-05-07 20:13 | 45.73587 | 22.31676 | 38045 ft | 435 kts | 285° |
| 2026-05-07 20:14 | 45.75469 | 22.23490 | 38043 ft | 435 kts | 285° |
| 2026-05-07 20:14 | 45.77356 | 22.15246 | 38038 ft | 435 kts | 285° |
| 2026-05-07 20:15 | 45.79239 | 22.06994 | 38040 ft | 436 kts | 285° |
| 2026-05-07 20:15 | 45.81121 | 21.98706 | 38037 ft | 437 kts | 285° |
| 2026-05-07 20:16 | 45.82989 | 21.90457 | 38032 ft | 437 kts | 285° |
| 2026-05-07 20:16 | 45.84863 | 21.82150 | 38034 ft | 437 kts | 284° |
| 2026-05-07 20:17 | 45.86733 | 21.73829 | 38031 ft | 438 kts | 284° |
| 2026-05-07 20:17 | 45.88594 | 21.65508 | 38030 ft | 438 kts | 284° |
| 2026-05-07 20:18 | 45.90439 | 21.57230 | 38029 ft | 438 kts | 284° |
| 2026-05-07 20:18 | 45.92292 | 21.48885 | 38022 ft | 438 kts | 284° |
| 2026-05-07 20:19 | 45.94141 | 21.40526 | 38034 ft | 438 kts | 284° |
| 2026-05-07 20:19 | 45.95984 | 21.32160 | 38021 ft | 440 kts | 284° |
| 2026-05-07 20:20 | 45.97813 | 21.23819 | 38020 ft | 440 kts | 284° |
| 2026-05-07 20:20 | 45.99649 | 21.15420 | 38037 ft | 440 kts | 284° |
| 2026-05-07 20:21 | 46.01477 | 21.07020 | 38036 ft | 440 kts | 284° |
| 2026-05-07 20:21 | 46.03298 | 20.98621 | 38032 ft | 440 kts | 283° |
| 2026-05-07 20:22 | 46.05114 | 20.90209 | 38028 ft | 439 kts | 283° |
| 2026-05-07 20:22 | 46.06912 | 20.81846 | 38023 ft | 439 kts | 283° |
| 2026-05-07 20:23 | 46.08716 | 20.73425 | 38019 ft | 439 kts | 283° |
| 2026-05-07 20:23 | 46.10514 | 20.64992 | 38018 ft | 439 kts | 283° |
| 2026-05-07 20:24 | 46.12288 | 20.56645 | 38015 ft | 437 kts | 283° |
| 2026-05-07 20:24 | 46.14060 | 20.48268 | 38015 ft | 437 kts | 283° |
| 2026-05-07 20:25 | 46.15827 | 20.39879 | 38017 ft | 437 kts | 283° |
| 2026-05-07 20:25 | 46.17850 | 20.31577 | 38052 ft | 439 kts | 287° |
| 2026-05-07 20:26 | 46.20105 | 20.23408 | 38019 ft | 439 kts | 287° |
| 2026-05-07 20:26 | 46.22338 | 20.15200 | 38020 ft | 439 kts | 287° |
| 2026-05-07 20:27 | 46.24515 | 20.06968 | 38027 ft | 439 kts | 286° |
| 2026-05-07 20:27 | 46.26666 | 19.98722 | 38025 ft | 438 kts | 286° |
| 2026-05-07 20:28 | 46.28811 | 19.90459 | 38024 ft | 438 kts | 286° |
| 2026-05-07 20:28 | 46.30949 | 19.82200 | 38031 ft | 438 kts | 286° |
| 2026-05-07 20:29 | 46.33074 | 19.73972 | 38036 ft | 438 kts | 286° |
| 2026-05-07 20:29 | 46.35206 | 19.65689 | 38035 ft | 438 kts | 286° |
| 2026-05-07 20:30 | 46.37320 | 19.57443 | 38037 ft | 438 kts | 286° |
| 2026-05-07 20:30 | 46.39438 | 19.49155 | 38034 ft | 438 kts | 285° |
| 2026-05-07 20:31 | 46.41548 | 19.40867 | 38037 ft | 438 kts | 285° |
| 2026-05-07 20:31 | 46.43656 | 19.32554 | 38037 ft | 438 kts | 285° |
| 2026-05-07 20:32 | 46.45741 | 19.24304 | 38059 ft | 438 kts | 285° |
| 2026-05-07 20:32 | 46.47836 | 19.15983 | 38036 ft | 440 kts | 285° |
| 2026-05-07 20:33 | 46.49931 | 19.07631 | 38038 ft | 440 kts | 285° |
| 2026-05-07 20:33 | 46.52021 | 18.99276 | 38032 ft | 440 kts | 285° |
| 2026-05-07 20:34 | 46.54102 | 18.90918 | 38037 ft | 440 kts | 285° |
| 2026-05-07 20:34 | 46.56162 | 18.82620 | 38036 ft | 439 kts | 285° |
| 2026-05-07 20:35 | 46.58227 | 18.74266 | 38035 ft | 438 kts | 285° |
| 2026-05-07 20:35 | 46.60285 | 18.65913 | 38034 ft | 438 kts | 285° |
| 2026-05-07 20:36 | 46.62324 | 18.57603 | 38033 ft | 438 kts | 285° |
| 2026-05-07 20:36 | 46.64369 | 18.49236 | 38046 ft | 438 kts | 285° |
| 2026-05-07 20:37 | 46.66401 | 18.40893 | 38030 ft | 437 kts | 285° |
| 2026-05-07 20:37 | 46.68430 | 18.32532 | 38031 ft | 437 kts | 285° |
| 2026-05-07 20:38 | 46.70442 | 18.24209 | 38032 ft | 437 kts | 285° |
| 2026-05-07 20:38 | 46.72457 | 18.15842 | 38031 ft | 437 kts | 285° |
| 2026-05-07 20:39 | 46.74463 | 18.07488 | 38030 ft | 435 kts | 285° |
| 2026-05-07 20:39 | 46.76455 | 17.99155 | 38025 ft | 434 kts | 285° |
| 2026-05-07 20:40 | 46.78436 | 17.90834 | 38027 ft | 434 kts | 285° |
| 2026-05-07 20:40 | 46.80397 | 17.82565 | 38028 ft | 434 kts | 284° |
| 2026-05-07 20:41 | 46.82369 | 17.74222 | 38031 ft | 434 kts | 284° |
| 2026-05-07 20:41 | 46.84334 | 17.65879 | 38025 ft | 434 kts | 284° |
| 2026-05-07 20:42 | 46.86289 | 17.57539 | 38027 ft | 434 kts | 284° |
| 2026-05-07 20:42 | 46.88240 | 17.49185 | 38028 ft | 435 kts | 284° |
| 2026-05-07 20:43 | 46.90192 | 17.40800 | 38058 ft | 435 kts | 284° |
| 2026-05-07 20:43 | 46.92138 | 17.32411 | 38030 ft | 435 kts | 284° |
| 2026-05-07 20:44 | 46.94065 | 17.24068 | 38039 ft | 435 kts | 284° |
| 2026-05-07 20:44 | 46.95998 | 17.15668 | 38035 ft | 435 kts | 284° |
| 2026-05-07 20:45 | 46.97924 | 17.07264 | 38033 ft | 435 kts | 284° |
| 2026-05-07 20:45 | 46.99842 | 16.98858 | 38025 ft | 435 kts | 284° |
| 2026-05-07 20:46 | 47.01753 | 16.90449 | 38029 ft | 439 kts | 284° |
| 2026-05-07 20:46 | 47.03686 | 16.81914 | 38029 ft | 439 kts | 284° |
| 2026-05-07 20:47 | 47.05605 | 16.73410 | 38027 ft | 439 kts | 284° |
| 2026-05-07 20:47 | 47.07507 | 16.64947 | 38041 ft | 439 kts | 284° |
| 2026-05-07 20:48 | 47.09414 | 16.56422 | 38032 ft | 439 kts | 284° |
| 2026-05-07 20:48 | 47.11315 | 16.47894 | 38032 ft | 439 kts | 284° |
| 2026-05-07 20:49 | 47.13210 | 16.39353 | 38033 ft | 439 kts | 284° |
| 2026-05-07 20:49 | 47.14635 | 16.30682 | 38032 ft | 435 kts | 277° |
| 2026-05-07 20:50 | 47.15644 | 16.21963 | 38034 ft | 435 kts | 276° |
| 2026-05-07 20:50 | 47.16592 | 16.13169 | 38036 ft | 435 kts | 275° |
| 2026-05-07 20:51 | 47.17533 | 16.04369 | 38040 ft | 435 kts | 275° |
| 2026-05-07 20:51 | 47.18468 | 15.95649 | 38048 ft | 435 kts | 275° |
| 2026-05-07 20:52 | 47.19408 | 15.86858 | 38066 ft | 435 kts | 276° |
| 2026-05-07 20:52 | 47.20345 | 15.78024 | 38051 ft | 438 kts | 276° |
| 2026-05-07 20:53 | 47.21278 | 15.69152 | 38055 ft | 439 kts | 276° |
| 2026-05-07 20:53 | 47.22050 | 15.61770 | 38056 ft | 440 kts | 276° |
| 2026-05-07 20:54 | 47.22974 | 15.52879 | 38059 ft | 439 kts | 275° |
| 2026-05-07 20:54 | 47.23889 | 15.43984 | 38066 ft | 440 kts | 276° |
| 2026-05-07 20:55 | 47.24800 | 15.35068 | 38058 ft | 441 kts | 276° |
| 2026-05-07 20:55 | 47.25704 | 15.26150 | 38062 ft | 441 kts | 276° |
| 2026-05-07 20:56 | 47.26602 | 15.17223 | 38068 ft | 441 kts | 276° |
| 2026-05-07 20:56 | 47.27487 | 15.08347 | 38060 ft | 440 kts | 275° |
| 2026-05-07 20:57 | 47.28371 | 14.99410 | 38091 ft | 442 kts | 276° |
| 2026-05-07 20:57 | 47.29252 | 14.90438 | 38097 ft | 442 kts | 276° |
| 2026-05-07 20:58 | 47.30126 | 14.81450 | 38099 ft | 442 kts | 275° |
| 2026-05-07 20:58 | 47.30987 | 14.72537 | 38102 ft | 442 kts | 275° |
| 2026-05-07 20:59 | 47.31845 | 14.63558 | 38107 ft | 442 kts | 276° |
| 2026-05-07 20:59 | 47.32694 | 14.54589 | 38089 ft | 441 kts | 276° |
| 2026-05-07 21:00 | 47.33541 | 14.45612 | 38081 ft | 441 kts | 276° |
| 2026-05-07 21:00 | 47.34378 | 14.36634 | 38088 ft | 441 kts | 275° |
| 2026-05-07 21:01 | 47.35204 | 14.27706 | 38091 ft | 441 kts | 275° |
| 2026-05-07 21:01 | 47.36023 | 14.18739 | 38080 ft | 441 kts | 275° |
| 2026-05-07 21:02 | 47.36839 | 14.09773 | 38085 ft | 441 kts | 275° |
| 2026-05-07 21:02 | 47.37646 | 14.00805 | 38091 ft | 441 kts | 275° |
| 2026-05-07 21:03 | 47.38448 | 13.91819 | 38085 ft | 441 kts | 275° |
| 2026-05-07 21:03 | 47.39241 | 13.82854 | 38099 ft | 441 kts | 275° |
| 2026-05-07 21:04 | 47.40023 | 13.73926 | 38091 ft | 442 kts | 275° |
| 2026-05-07 21:04 | 47.40805 | 13.64911 | 38091 ft | 443 kts | 275° |
| 2026-05-07 21:05 | 47.41580 | 13.55900 | 38089 ft | 441 kts | 275° |
| 2026-05-07 21:05 | 47.42348 | 13.46908 | 38095 ft | 441 kts | 275° |
| 2026-05-07 21:06 | 47.43105 | 13.37928 | 38091 ft | 441 kts | 275° |
| 2026-05-07 21:06 | 47.43856 | 13.28939 | 38086 ft | 440 kts | 275° |
| 2026-05-07 21:07 | 47.44593 | 13.20010 | 38089 ft | 440 kts | 275° |
| 2026-05-07 21:07 | 47.45330 | 13.11015 | 38088 ft | 441 kts | 275° |
| 2026-05-07 21:08 | 47.46063 | 13.02013 | 38084 ft | 441 kts | 275° |
| 2026-05-07 21:08 | 47.46788 | 12.93021 | 38086 ft | 440 kts | 275° |
| 2026-05-07 21:09 | 47.47501 | 12.84030 | 38082 ft | 440 kts | 275° |
| 2026-05-07 21:09 | 47.48205 | 12.75092 | 38092 ft | 441 kts | 275° |
| 2026-05-07 21:10 | 47.48904 | 12.66093 | 38082 ft | 439 kts | 275° |
| 2026-05-07 21:10 | 47.49598 | 12.57104 | 38086 ft | 440 kts | 275° |
| 2026-05-07 21:11 | 47.50286 | 12.48074 | 38079 ft | 441 kts | 275° |
| 2026-05-07 21:11 | 47.51301 | 12.34596 | 38081 ft | 441 kts | 275° |
| 2026-05-07 21:12 | 47.51972 | 12.25579 | 38081 ft | 441 kts | 275° |
| 2026-05-07 21:12 | 47.52635 | 12.16554 | 38084 ft | 441 kts | 274° |
| 2026-05-07 21:13 | 47.53292 | 12.07517 | 38075 ft | 441 kts | 274° |
| 2026-05-07 21:13 | 47.54117 | 11.98523 | 38085 ft | 442 kts | 278° |
| 2026-05-07 21:14 | 47.55250 | 11.89591 | 38074 ft | 442 kts | 279° |
| 2026-05-07 21:14 | 47.56430 | 11.80662 | 38082 ft | 442 kts | 279° |
| 2026-05-07 21:15 | 47.57603 | 11.71780 | 38082 ft | 443 kts | 279° |
| 2026-05-07 21:15 | 47.58773 | 11.62806 | 38079 ft | 443 kts | 279° |
| 2026-05-07 21:16 | 47.59932 | 11.53830 | 38072 ft | 443 kts | 279° |
| 2026-05-07 21:16 | 47.61082 | 11.44864 | 38073 ft | 443 kts | 279° |
| 2026-05-07 21:17 | 47.62220 | 11.35933 | 38083 ft | 443 kts | 279° |
| 2026-05-07 21:17 | 47.63355 | 11.26962 | 38078 ft | 443 kts | 279° |
| 2026-05-07 21:18 | 47.64486 | 11.17979 | 37908 ft | 442 kts | 279° |
| 2026-05-07 21:18 | 47.65047 | 11.13511 | 37689 ft | 437 kts | 279° |
| 2026-05-07 21:18 | 47.65599 | 11.09116 | 37404 ft | 431 kts | 279° |
| 2026-05-07 21:19 | 47.66144 | 11.04738 | 36751 ft | 433 kts | 279° |
| 2026-05-07 21:19 | 47.66688 | 11.00331 | 36101 ft | 435 kts | 279° |
| 2026-05-07 21:19 | 47.67233 | 10.95905 | 35454 ft | 437 kts | 279° |
| 2026-05-07 21:19 | 47.67779 | 10.91458 | 34789 ft | 438 kts | 279° |
| 2026-05-07 21:20 | 47.68317 | 10.87060 | 34189 ft | 438 kts | 279° |
| 2026-05-07 21:20 | 47.68861 | 10.82601 | 33472 ft | 438 kts | 279° |
| 2026-05-07 21:20 | 47.69402 | 10.78152 | 32649 ft | 439 kts | 279° |
| 2026-05-07 21:20 | 47.69946 | 10.73665 | 31801 ft | 442 kts | 279° |
| 2026-05-07 21:21 | 47.70492 | 10.69154 | 30948 ft | 445 kts | 279° |
| 2026-05-07 21:21 | 47.71040 | 10.64612 | 30077 ft | 447 kts | 279° |
| 2026-05-07 21:21 | 47.71584 | 10.60095 | 29068 ft | 450 kts | 279° |
| 2026-05-07 21:21 | 47.72133 | 10.55521 | 28314 ft | 448 kts | 279° |
| 2026-05-07 21:22 | 47.72676 | 10.50980 | 27692 ft | 443 kts | 279° |
| 2026-05-07 21:22 | 47.73210 | 10.46497 | 27075 ft | 439 kts | 279° |
| 2026-05-07 21:22 | 47.73737 | 10.42054 | 26483 ft | 435 kts | 279° |
| 2026-05-07 21:22 | 47.74249 | 10.37640 | 25880 ft | 431 kts | 278° |
| 2026-05-07 21:23 | 47.74442 | 10.33213 | 25323 ft | 427 kts | 270° |
| 2026-05-07 21:23 | 47.74446 | 10.28824 | 24739 ft | 424 kts | 269° |
| 2026-05-07 21:23 | 47.74385 | 10.24460 | 24149 ft | 421 kts | 268° |
| 2026-05-07 21:23 | 47.74288 | 10.20112 | 23518 ft | 419 kts | 268° |
| 2026-05-07 21:24 | 47.74179 | 10.15788 | 22842 ft | 416 kts | 267° |
| 2026-05-07 21:24 | 47.74069 | 10.11564 | 22258 ft | 413 kts | 267° |
| 2026-05-07 21:24 | 47.73960 | 10.07325 | 21656 ft | 409 kts | 267° |
| 2026-05-07 21:24 | 47.73853 | 10.03111 | 21048 ft | 406 kts | 267° |
| 2026-05-07 21:25 | 47.73748 | 9.98930 | 20457 ft | 403 kts | 267° |
| 2026-05-07 21:25 | 47.73642 | 9.94788 | 19868 ft | 400 kts | 267° |
| 2026-05-07 21:25 | 47.73534 | 9.90663 | 19280 ft | 398 kts | 267° |
| 2026-05-07 21:25 | 47.73430 | 9.86570 | 18698 ft | 396 kts | 267° |
| 2026-05-07 21:26 | 47.73328 | 9.82502 | 18094 ft | 394 kts | 267° |
| 2026-05-07 21:26 | 47.73226 | 9.78440 | 17474 ft | 390 kts | 267° |
| 2026-05-07 21:26 | 47.73122 | 9.74428 | 16905 ft | 387 kts | 267° |
| 2026-05-07 21:26 | 47.73017 | 9.70462 | 16336 ft | 383 kts | 267° |
| 2026-05-07 21:27 | 47.72908 | 9.66524 | 15772 ft | 380 kts | 267° |
| 2026-05-07 21:27 | 47.72800 | 9.62617 | 15220 ft | 377 kts | 266° |
| 2026-05-07 21:27 | 47.72687 | 9.58735 | 14657 ft | 374 kts | 267° |
| 2026-05-07 21:27 | 47.72576 | 9.54937 | 14105 ft | 372 kts | 266° |
| 2026-05-07 21:28 | 47.72468 | 9.51116 | 13507 ft | 369 kts | 266° |
| 2026-05-07 21:28 | 47.72353 | 9.47322 | 12934 ft | 365 kts | 266° |
| 2026-05-07 21:28 | 47.71963 | 9.43623 | 12391 ft | 361 kts | 253° |
| 2026-05-07 21:28 | 47.70871 | 9.40298 | 11840 ft | 358 kts | 236° |
| 2026-05-07 21:29 | 47.69353 | 9.37377 | 11346 ft | 354 kts | 231° |
| 2026-05-07 21:29 | 47.67813 | 9.34615 | 11209 ft | 340 kts | 231° |
| 2026-05-07 21:29 | 47.66336 | 9.31964 | 11076 ft | 327 kts | 231° |
| 2026-05-07 21:29 | 47.64917 | 9.29401 | 10948 ft | 315 kts | 231° |
| 2026-05-07 21:30 | 47.63557 | 9.26938 | 10858 ft | 303 kts | 231° |
| 2026-05-07 21:30 | 47.62273 | 9.24543 | 10694 ft | 290 kts | 233° |
| 2026-05-07 21:30 | 47.61105 | 9.22193 | 10249 ft | 276 kts | 234° |
| 2026-05-07 21:30 | 47.59988 | 9.19899 | 9472 ft | 272 kts | 234° |
| 2026-05-07 21:31 | 47.58897 | 9.17665 | 8612 ft | 271 kts | 234° |
| 2026-05-07 21:31 | 47.57788 | 9.15408 | 7892 ft | 268 kts | 234° |
| 2026-05-07 21:31 | 47.56702 | 9.13206 | 7561 ft | 262 kts | 233° |
| 2026-05-07 21:31 | 47.55624 | 9.11027 | 7277 ft | 261 kts | 233° |
| 2026-05-07 21:32 | 47.54552 | 9.08864 | 6989 ft | 260 kts | 233° |
| 2026-05-07 21:32 | 47.53483 | 9.06708 | 6694 ft | 260 kts | 233° |
| 2026-05-07 21:32 | 47.52416 | 9.04562 | 6407 ft | 258 kts | 233° |
| 2026-05-07 21:32 | 47.51349 | 9.02417 | 6019 ft | 260 kts | 233° |
| 2026-05-07 21:33 | 47.50278 | 9.00265 | 5705 ft | 259 kts | 232° |
| 2026-05-07 21:33 | 47.49211 | 8.98124 | 5392 ft | 258 kts | 232° |
| 2026-05-07 21:33 | 47.48153 | 8.96001 | 5106 ft | 256 kts | 232° |
| 2026-05-07 21:33 | 47.47085 | 8.93864 | 4980 ft | 256 kts | 233° |
| 2026-05-07 21:34 | 47.46053 | 8.91794 | 4973 ft | 243 kts | 232° |
| 2026-05-07 21:34 | 47.45074 | 8.89833 | 4975 ft | 231 kts | 232° |
| 2026-05-07 21:34 | 47.44170 | 8.87981 | 4975 ft | 219 kts | 236° |
| 2026-05-07 21:34 | 47.43643 | 8.85951 | 4971 ft | 207 kts | 265° |
| 2026-05-07 21:35 | 47.43713 | 8.83900 | 4978 ft | 197 kts | 278° |
| 2026-05-07 21:35 | 47.43895 | 8.81888 | 5002 ft | 197 kts | 276° |
| 2026-05-07 21:35 | 47.44039 | 8.79891 | 5023 ft | 193 kts | 275° |
| 2026-05-07 21:35 | 47.44162 | 8.77923 | 4690 ft | 195 kts | 275° |
| 2026-05-07 21:36 | 47.44286 | 8.75886 | 4269 ft | 200 kts | 276° |
| 2026-05-07 21:36 | 47.44447 | 8.73872 | 3946 ft | 193 kts | 278° |
| 2026-05-07 21:36 | 47.44602 | 8.71946 | 3653 ft | 184 kts | 279° |
| 2026-05-07 21:36 | 47.44726 | 8.70145 | 3399 ft | 174 kts | 277° |
| 2026-05-07 21:37 | 47.44824 | 8.68426 | 3173 ft | 163 kts | 278° |
| 2026-05-07 21:37 | 47.44946 | 8.66801 | 2925 ft | 155 kts | 278° |
| 2026-05-07 21:37 | 47.45066 | 8.65235 | 2679 ft | 151 kts | 277° |
| 2026-05-07 21:37 | 47.45165 | 8.63717 | 2459 ft | 148 kts | 278° |
| 2026-05-07 21:38 | 47.45283 | 8.62204 | 2226 ft | 147 kts | 277° |
| 2026-05-07 21:38 | 47.45392 | 8.60704 | 2012 ft | 146 kts | 277° |
| 2026-05-07 21:38 | 47.45502 | 8.59211 | 1787 ft | 146 kts | 277° |
| 2026-05-07 21:38 | 47.45607 | 8.57756 | 1574 ft | 142 kts | 276° |
| 2026-05-07 21:39 | 47.45709 | 8.56329 | 1421 ft | 130 kts | 276° |
| 2026-05-07 21:39 | 47.45776 | 8.55416 | 1404 ft | 48 kts | 276° |
| 2026-05-07 21:39 | 47.45797 | 8.55104 | 1404 ft | 44 kts | 276° |
| 2026-05-07 21:39 | 47.45858 | 8.54774 | 1406 ft | 18 kts | 324° |
| 2026-05-07 21:40 | 47.45914 | 8.54767 | 1404 ft | 4 kts | 49° |
| 2026-05-07 21:40 | 47.45920 | 8.54797 | 1404 ft | 6 kts | 78° |
| 2026-05-07 21:40 | 47.45917 | 8.54917 | 1400 ft | 11 kts | 95° |
| 2026-05-07 21:40 | 47.45911 | 8.54995 | 1397 ft | 11 kts | 96° |
| 2026-05-07 21:41 | 47.45915 | 8.55102 | 1401 ft | 10 kts | 64° |
| 2026-05-07 21:41 | 47.45967 | 8.55169 | 1408 ft | 10 kts | 41° |
| 2026-05-07 21:41 | 47.45981 | 8.55266 | 1402 ft | 10 kts | 92° |
| 2026-05-07 21:41 | 47.45976 | 8.55362 | 1409 ft | 9 kts | 96° |
| 2026-05-07 21:42 | 47.45969 | 8.55455 | 1409 ft | 9 kts | 96° |
| 2026-05-07 21:42 | 47.45962 | 8.55545 | 1412 ft | 9 kts | 96° |
| 2026-05-07 21:42 | 47.45956 | 8.55632 | 1406 ft | 8 kts | 96° |
| 2026-05-07 21:42 | 47.45964 | 8.55708 | 1416 ft | 7 kts | 49° |
| 2026-05-07 21:43 | 47.46013 | 8.55732 | 1413 ft | 8 kts | 7° |
| 2026-05-07 21:43 | 47.46031 | 8.55735 | 1413 ft | 1 kts | 6° |
| 2026-05-07 21:43 | 47.46038 | 8.55736 | 1415 ft | 0 kts | 6° |